Time;durP1;ratioP1;P1;durP2;ratioP2;P2;SDS_P1;SDS_P2;PMS_P1;PMS_P2;Temp;Humidity;BMP_temperature;BMP_pressure;BME280_temperature;BME280_humidity;BME280_pressure;Samples;Min_cycle;Max_cycle;Signal;HPM_P1;HPM_P2
2023/12/14 00:02:00;;;;;;;15.23;11.07;;;8.60;99.90;;;;;;4991562;28;20194;-76
2023/12/14 00:04:26;;;;;;;12.90;10.57;;;8.60;99.90;;;;;;4991823;28;20192;-77
2023/12/14 00:06:51;;;;;;;14.03;10.30;;;8.60;99.90;;;;;;4989876;28;20252;-74
2023/12/14 00:09:17;;;;;;;15.20;10.57;;;8.60;99.90;;;;;;4990265;28;20192;-75
2023/12/14 00:11:43;;;;;;;16.30;10.40;;;8.60;99.90;;;;;;4991316;28;20188;-74
2023/12/14 00:14:08;;;;;;;12.13;8.70;;;8.60;99.90;;;;;;4990939;28;20191;-77
2023/12/14 00:16:34;;;;;;;11.67;8.90;;;8.60;99.90;;;;;;5004720;28;20662;-78
2023/12/14 00:19:00;;;;;;;13.40;9.17;;;8.60;99.90;;;;;;4990665;28;20828;-76
2023/12/14 00:21:26;;;;;;;12.00;9.00;;;8.60;99.90;;;;;;4990520;28;20279;-74
2023/12/14 00:23:51;;;;;;;12.23;9.70;;;8.60;99.90;;;;;;4990484;28;20529;-76
2023/12/14 00:26:17;;;;;;;15.03;9.70;;;8.60;99.90;;;;;;4990764;28;20195;-77
2023/12/14 00:28:43;;;;;;;11.93;8.80;;;8.60;99.90;;;;;;4989284;28;20215;-75
2023/12/14 00:31:09;;;;;;;11.90;9.50;;;8.60;99.90;;;;;;4990627;28;20187;-75
2023/12/14 00:33:34;;;;;;;14.47;10.20;;;8.60;99.90;;;;;;4990452;28;20188;-75
2023/12/14 00:36:00;;;;;;;15.10;10.83;;;8.60;99.90;;;;;;4990101;28;20549;-76
2023/12/14 00:38:26;;;;;;;15.87;11.07;;;8.60;99.90;;;;;;4991577;28;20634;-75
2023/12/14 00:40:51;;;;;;;15.67;11.57;;;8.60;99.90;;;;;;4974779;28;20582;-74
2023/12/14 00:43:17;;;;;;;13.60;10.53;;;8.60;99.90;;;;;;4990729;28;20195;-77
2023/12/14 00:45:43;;;;;;;15.13;11.47;;;8.50;99.90;;;;;;4990544;28;20219;-75
2023/12/14 00:48:08;;;;;;;16.90;11.20;;;8.60;99.90;;;;;;4991015;28;20224;-75
2023/12/14 00:50:34;;;;;;;19.30;12.13;;;8.60;99.90;;;;;;4989484;28;20226;-76
2023/12/14 00:53:00;;;;;;;17.00;11.57;;;8.60;99.90;;;;;;4991257;28;20204;-75
2023/12/14 00:55:25;;;;;;;13.50;10.13;;;8.60;99.90;;;;;;4990991;28;20723;-74
2023/12/14 00:57:51;;;;;;;14.70;10.80;;;8.60;99.90;;;;;;4988472;28;20180;-77
2023/12/14 01:00:18;;;;;;;14.33;9.80;;;8.50;99.90;;;;;;4990573;28;20187;-76
2023/12/14 01:02:43;;;;;;;16.47;10.60;;;8.50;99.90;;;;;;4989904;28;20237;-74
2023/12/14 01:05:09;;;;;;;12.77;10.50;;;8.40;99.90;;;;;;4991176;28;21181;-76
2023/12/14 01:07:35;;;;;;;13.63;9.60;;;8.30;99.90;;;;;;4989440;28;20210;-75
2023/12/14 01:10:01;;;;;;;12.90;9.00;;;8.30;99.90;;;;;;4991082;28;20274;-74
2023/12/14 01:12:26;;;;;;;14.50;9.10;;;8.20;99.90;;;;;;4990930;28;20943;-75
2023/12/14 01:14:52;;;;;;;15.33;10.33;;;8.20;99.90;;;;;;4989207;28;20190;-76
2023/12/14 01:17:18;;;;;;;13.27;8.80;;;8.20;99.90;;;;;;4992033;28;20187;-77
2023/12/14 01:19:43;;;;;;;12.83;10.03;;;8.20;99.90;;;;;;4990115;28;20277;-75
2023/12/14 01:22:10;;;;;;;11.33;9.40;;;8.20;99.90;;;;;;4991323;28;20233;-76
2023/12/14 01:24:36;;;;;;;10.90;7.97;;;8.20;99.90;;;;;;4989206;28;20765;-75
2023/12/14 01:27:02;;;;;;;9.97;7.63;;;8.30;99.90;;;;;;4991248;28;20513;-75
2023/12/14 01:29:27;;;;;;;8.60;7.60;;;8.30;99.90;;;;;;4990992;28;20526;-75
2023/12/14 01:31:53;;;;;;;11.10;6.90;;;8.30;99.90;;;;;;4990096;28;20570;-76
2023/12/14 01:34:18;;;;;;;8.57;7.03;;;8.30;99.90;;;;;;4990826;28;20184;-75
2023/12/14 01:36:44;;;;;;;7.50;6.43;;;8.30;99.90;;;;;;4990702;28;20201;-75
2023/12/14 01:39:10;;;;;;;7.60;6.73;;;8.30;99.90;;;;;;4990764;28;20848;-76
2023/12/14 01:41:35;;;;;;;6.70;6.00;;;8.30;99.90;;;;;;4989438;28;20187;-75
2023/12/14 01:44:01;;;;;;;7.43;6.33;;;8.30;99.90;;;;;;4990416;28;20325;-75
2023/12/14 01:46:27;;;;;;;8.07;6.80;;;8.30;99.90;;;;;;4989728;28;20188;-78
2023/12/14 01:48:52;;;;;;;8.30;6.67;;;8.30;99.90;;;;;;4989953;28;20198;-75
2023/12/14 01:51:19;;;;;;;6.90;5.73;;;8.30;99.90;;;;;;4989537;28;20191;-75
2023/12/14 01:53:44;;;;;;;6.50;5.00;;;8.30;99.90;;;;;;4992441;28;20232;-78
2023/12/14 01:56:10;;;;;;;6.90;5.50;;;8.20;99.90;;;;;;4991996;28;20517;-78
2023/12/14 01:58:36;;;;;;;8.57;6.27;;;8.20;99.90;;;;;;4992852;28;20341;-75
2023/12/14 02:01:04;;;;;;;6.27;5.40;;;8.20;99.90;;;;;;4992050;28;20225;-76
2023/12/14 02:03:30;;;;;;;6.20;5.43;;;8.20;99.90;;;;;;4991667;28;20195;-77
2023/12/14 02:05:57;;;;;;;6.70;5.17;;;8.20;99.90;;;;;;4992520;28;20532;-75
2023/12/14 02:08:24;;;;;;;5.97;4.80;;;8.10;99.90;;;;;;4988963;28;20196;-75
2023/12/14 02:10:50;;;;;;;6.77;5.40;;;8.10;99.90;;;;;;4987756;28;20530;-78
2023/12/14 02:13:16;;;;;;;7.23;5.70;;;8.10;99.90;;;;;;4992967;28;20517;-76
2023/12/14 02:15:42;;;;;;;5.70;5.07;;;8.00;99.90;;;;;;4992347;28;20525;-78
2023/12/14 02:18:08;;;;;;;7.80;5.13;;;8.00;99.90;;;;;;4993294;28;20778;-75
2023/12/14 02:20:33;;;;;;;6.63;5.93;;;8.00;99.90;;;;;;4993157;28;20426;-75
2023/12/14 02:22:59;;;;;;;7.37;6.00;;;8.00;99.90;;;;;;4992446;28;20202;-75
2023/12/14 02:25:25;;;;;;;10.53;6.63;;;8.00;99.90;;;;;;4994270;28;20180;-75
2023/12/14 02:27:51;;;;;;;10.53;7.07;;;8.10;99.90;;;;;;4991824;28;20187;-75
2023/12/14 02:30:17;;;;;;;8.80;7.17;;;8.10;99.90;;;;;;4993565;28;20237;-76
2023/12/14 02:32:43;;;;;;;9.50;7.50;;;8.10;99.90;;;;;;4993024;28;20442;-74
2023/12/14 02:35:09;;;;;;;9.80;7.73;;;8.10;99.90;;;;;;4992340;28;20524;-75
2023/12/14 02:37:37;;;;;;;10.10;8.00;;;7.90;99.90;;;;;;4996530;28;20438;-75
2023/12/14 02:40:04;;;;;;;11.30;8.50;;;7.90;99.90;;;;;;4996250;28;20526;-76
2023/12/14 02:42:30;;;;;;;10.80;8.93;;;7.80;99.90;;;;;;4997024;28;20431;-74
2023/12/14 02:44:56;;;;;;;11.40;8.43;;;7.80;99.90;;;;;;4994652;28;20434;-75
2023/12/14 02:47:22;;;;;;;12.07;8.50;;;7.70;99.90;;;;;;4997540;28;20561;-74
2023/12/14 02:49:48;;;;;;;11.53;8.83;;;7.70;99.90;;;;;;4994926;28;20532;-75
2023/12/14 02:52:14;;;;;;;12.43;8.83;;;7.70;99.90;;;;;;4996681;28;20482;-75
2023/12/14 02:54:40;;;;;;;11.50;9.00;;;7.70;99.90;;;;;;4996353;28;20233;-76
2023/12/14 02:57:06;;;;;;;11.70;8.43;;;7.70;99.90;;;;;;4996095;28;20542;-75
2023/12/14 02:59:32;;;;;;;11.67;8.77;;;7.70;99.90;;;;;;4996801;28;20219;-75
2023/12/14 03:01:57;;;;;;;11.90;8.60;;;7.70;99.90;;;;;;4996301;28;20184;-76
2023/12/14 03:04:23;;;;;;;10.53;7.70;;;7.70;99.90;;;;;;4994898;28;20195;-75
2023/12/14 03:06:48;;;;;;;12.57;8.63;;;7.70;99.90;;;;;;4994536;28;20211;-77
2023/12/14 03:09:14;;;;;;;12.40;8.47;;;7.70;99.90;;;;;;4997058;28;20191;-77
2023/12/14 03:11:40;;;;;;;11.63;8.37;;;7.70;99.90;;;;;;4995499;28;20241;-76
2023/12/14 03:14:06;;;;;;;9.47;7.30;;;7.70;99.90;;;;;;4997458;28;20188;-76
2023/12/14 03:16:31;;;;;;;11.80;8.13;;;7.70;99.90;;;;;;4996496;28;20286;-74
2023/12/14 03:18:57;;;;;;;9.50;7.70;;;7.70;99.90;;;;;;4995814;28;20484;-76
2023/12/14 03:21:23;;;;;;;11.63;7.90;;;7.60;99.90;;;;;;4997878;28;20548;-74
2023/12/14 03:23:49;;;;;;;9.80;7.50;;;7.60;99.90;;;;;;4996211;28;20223;-77
2023/12/14 03:26:15;;;;;;;10.77;8.30;;;7.60;99.90;;;;;;4996707;28;20430;-77
2023/12/14 03:28:41;;;;;;;10.63;8.20;;;7.60;99.90;;;;;;4996466;28;20509;-76
2023/12/14 03:31:07;;;;;;;10.80;8.20;;;7.60;99.90;;;;;;4995734;28;20537;-77
2023/12/14 03:33:32;;;;;;;13.90;9.30;;;7.60;99.90;;;;;;4997494;28;20198;-76
2023/12/14 03:35:59;;;;;;;12.07;8.53;;;7.60;99.90;;;;;;4996025;28;20192;-77
2023/12/14 03:38:25;;;;;;;12.03;9.70;;;7.60;99.90;;;;;;5000240;28;20569;-77
2023/12/14 03:40:50;;;;;;;11.43;8.87;;;7.60;99.90;;;;;;4994417;28;20457;-76
2023/12/14 03:43:16;;;;;;;14.13;8.83;;;7.70;99.90;;;;;;4998797;28;20203;-75
2023/12/14 03:45:42;;;;;;;12.10;9.20;;;7.70;99.90;;;;;;4996590;28;20229;-76
2023/12/14 03:48:07;;;;;;;14.07;10.33;;;7.70;99.90;;;;;;4996856;28;20821;-77
2023/12/14 03:50:33;;;;;;;12.67;9.93;;;7.60;99.90;;;;;;4996422;28;20254;-77
2023/12/14 03:52:59;;;;;;;14.23;10.70;;;7.60;99.90;;;;;;4996842;28;20188;-74
2023/12/14 03:55:25;;;;;;;12.70;10.20;;;7.60;99.90;;;;;;4997977;28;20455;-75
2023/12/14 03:57:50;;;;;;;16.77;11.13;;;7.60;99.90;;;;;;4995891;28;20646;-76
2023/12/14 04:00:16;;;;;;;14.17;10.13;;;7.60;99.90;;;;;;4997395;28;20250;-77
2023/12/14 04:02:42;;;;;;;13.73;9.23;;;7.50;99.90;;;;;;4996581;28;20961;-78
2023/12/14 04:05:09;;;;;;;12.87;8.73;;;7.50;99.90;;;;;;4995944;28;20435;-75
2023/12/14 04:07:40;;;;;;;12.80;8.87;;;7.50;99.90;;;;;;4997931;28;20436;-78
2023/12/14 04:10:10;;;;;;;10.70;8.10;;;7.50;99.90;;;;;;4996201;28;20500;-77
2023/12/14 04:12:37;;;;;;;8.00;6.83;;;7.50;99.90;;;;;;4997886;28;20768;-75
2023/12/14 04:15:04;;;;;;;11.33;7.50;;;7.60;99.90;;;;;;4996118;28;20499;-76
2023/12/14 04:17:31;;;;;;;11.67;7.10;;;7.50;99.90;;;;;;4997760;28;20522;-76
2023/12/14 04:19:57;;;;;;;8.77;7.20;;;7.60;99.90;;;;;;4996806;28;20470;-75
2023/12/14 04:22:22;;;;;;;8.80;6.40;;;7.60;99.90;;;;;;4980842;28;20431;-76
2023/12/14 04:24:48;;;;;;;8.20;6.60;;;7.60;99.90;;;;;;4996653;28;20435;-76
2023/12/14 04:27:15;;;;;;;9.20;6.67;;;7.60;99.90;;;;;;4996827;28;20198;-76
2023/12/14 04:29:40;;;;;;;7.90;6.63;;;7.60;99.90;;;;;;4998257;28;20433;-78
2023/12/14 04:32:06;;;;;;;9.60;6.37;;;7.60;99.90;;;;;;4996489;28;21407;-75
2023/12/14 04:34:32;;;;;;;9.40;6.53;;;7.60;99.90;;;;;;4977653;28;20253;-76
2023/12/14 04:36:58;;;;;;;8.93;6.93;;;7.60;99.90;;;;;;4999197;28;20201;-75
2023/12/14 04:39:27;;;;;;;7.60;5.93;;;7.60;99.90;;;;;;4997937;28;20215;-74
2023/12/14 04:41:53;;;;;;;8.20;6.33;;;7.60;99.90;;;;;;4995510;28;20183;-76
2023/12/14 04:44:22;;;;;;;8.00;6.07;;;7.60;99.90;;;;;;4996560;28;20457;-75
2023/12/14 04:46:48;;;;;;;8.77;6.60;;;7.60;99.90;;;;;;4996690;28;20450;-76
2023/12/14 04:49:14;;;;;;;8.87;6.87;;;7.60;99.90;;;;;;4998064;28;20438;-78
2023/12/14 04:51:39;;;;;;;6.53;5.80;;;7.60;99.90;;;;;;4999853;28;20469;-76
2023/12/14 04:54:05;;;;;;;6.57;5.50;;;7.60;99.90;;;;;;4996405;28;20183;-76
2023/12/14 04:56:31;;;;;;;6.60;5.47;;;7.60;99.90;;;;;;4998539;28;20626;-77
2023/12/14 04:58:57;;;;;;;6.13;5.13;;;7.60;99.90;;;;;;4997525;28;20386;-77
2023/12/14 05:01:22;;;;;;;7.27;5.87;;;7.60;99.90;;;;;;4997134;28;20198;-77
2023/12/14 05:03:48;;;;;;;8.73;5.90;;;7.60;99.90;;;;;;4995655;28;20669;-76
2023/12/14 05:06:14;;;;;;;6.30;4.80;;;7.60;99.90;;;;;;4994673;28;20301;-76
2023/12/14 05:08:39;;;;;;;7.17;4.70;;;7.60;99.90;;;;;;4998852;28;20196;-77
2023/12/14 05:11:05;;;;;;;6.30;4.87;;;7.60;99.90;;;;;;4996585;28;20175;-76
2023/12/14 05:13:31;;;;;;;7.13;5.50;;;7.60;99.90;;;;;;4998196;28;20176;-76
2023/12/14 05:16:00;;;;;;;7.23;5.20;;;7.70;99.90;;;;;;4996838;28;20444;-76
2023/12/14 05:18:26;;;;;;;7.27;5.27;;;7.60;99.90;;;;;;4998417;28;20217;-74
2023/12/14 05:20:52;;;;;;;7.23;4.90;;;7.60;99.90;;;;;;4996737;28;21304;-76
2023/12/14 05:23:18;;;;;;;6.80;5.20;;;7.60;99.90;;;;;;4995676;28;20980;-76
2023/12/14 05:25:44;;;;;;;8.00;6.03;;;7.60;99.90;;;;;;4998262;28;20190;-75
2023/12/14 05:28:10;;;;;;;7.77;5.67;;;7.60;99.90;;;;;;4995355;28;20195;-76
2023/12/14 05:30:35;;;;;;;8.73;6.20;;;7.60;99.90;;;;;;4999299;28;21052;-78
2023/12/14 05:33:01;;;;;;;7.93;6.33;;;7.60;99.90;;;;;;4996051;28;20673;-77
2023/12/14 05:35:27;;;;;;;9.87;7.30;;;7.60;99.90;;;;;;4998862;28;20179;-76
2023/12/14 05:37:53;;;;;;;9.27;6.87;;;7.50;99.90;;;;;;4998988;28;20976;-74
2023/12/14 05:40:18;;;;;;;10.37;6.97;;;7.50;99.90;;;;;;4995996;28;20237;-75
2023/12/14 05:42:44;;;;;;;11.40;7.00;;;7.50;99.90;;;;;;5012370;28;20175;-74
2023/12/14 05:45:10;;;;;;;10.23;7.57;;;7.50;99.90;;;;;;4983484;28;20639;-76
2023/12/14 05:47:37;;;;;;;8.23;6.40;;;7.50;99.90;;;;;;4987835;28;20264;-77
2023/12/14 05:50:04;;;;;;;10.80;7.17;;;7.40;99.90;;;;;;4988651;28;20423;-76
2023/12/14 05:52:30;;;;;;;10.13;7.40;;;7.40;99.90;;;;;;4988416;28;21121;-74
2023/12/14 05:54:56;;;;;;;11.20;7.70;;;7.40;99.90;;;;;;4988837;28;21078;-77
2023/12/14 05:57:21;;;;;;;10.30;7.97;;;7.40;99.90;;;;;;4986445;28;20549;-75
2023/12/14 05:59:47;;;;;;;10.47;7.50;;;7.40;99.90;;;;;;4989738;28;20891;-75
2023/12/14 06:02:13;;;;;;;8.07;6.87;;;7.40;99.90;;;;;;4992008;28;21023;-74
2023/12/14 06:04:38;;;;;;;8.87;6.47;;;7.30;99.90;;;;;;4999095;28;20280;-75
2023/12/14 06:07:04;;;;;;;10.67;7.20;;;7.30;99.90;;;;;;4996338;28;20309;-77
2023/12/14 06:09:33;;;;;;;8.60;6.90;;;7.40;99.90;;;;;;4999247;28;20196;-77
2023/12/14 06:12:01;;;;;;;11.60;9.03;;;7.30;99.90;;;;;;4996127;28;20288;-74
2023/12/14 06:14:27;;;;;;;10.77;7.77;;;7.30;99.90;;;;;;5002596;28;21000;-77
2023/12/14 06:16:52;;;;;;;11.80;8.60;;;7.30;99.90;;;;;;4999956;28;20434;-75
2023/12/14 06:19:18;;;;;;;11.00;8.00;;;7.30;99.90;;;;;;4998833;28;20542;-74
2023/12/14 06:21:44;;;;;;;10.57;8.37;;;7.30;99.90;;;;;;5003052;28;20274;-77
2023/12/14 06:24:09;;;;;;;13.57;8.90;;;7.30;99.90;;;;;;5000396;28;20188;-75
2023/12/14 06:26:40;;;;;;;11.97;8.63;;;7.30;99.90;;;;;;5003213;28;20248;-76
2023/12/14 06:29:05;;;;;;;12.00;9.10;;;7.30;99.90;;;;;;4986071;28;20564;-77
2023/12/14 06:31:31;;;;;;;10.90;8.57;;;7.30;99.90;;;;;;4994146;28;20451;-74
2023/12/14 06:33:57;;;;;;;12.87;8.70;;;7.30;99.90;;;;;;5001269;28;20190;-76
2023/12/14 06:36:26;;;;;;;18.53;9.93;;;7.30;99.90;;;;;;5002709;28;20191;-74
2023/12/14 06:38:52;;;;;;;12.17;8.80;;;7.30;99.90;;;;;;5000546;28;20500;-74
2023/12/14 06:41:21;;;;;;;14.50;9.70;;;7.30;99.90;;;;;;4992846;28;20560;-74
2023/12/14 06:43:46;;;;;;;12.70;9.73;;;7.30;99.90;;;;;;4992923;28;20462;-75
2023/12/14 06:46:12;;;;;;;18.00;11.20;;;7.30;99.90;;;;;;4999717;28;20455;-75
2023/12/14 06:48:38;;;;;;;15.90;10.93;;;7.30;99.90;;;;;;5003770;28;20245;-74
2023/12/14 06:51:03;;;;;;;15.40;11.00;;;7.30;99.90;;;;;;5077326;28;20202;-74
2023/12/14 06:53:30;;;;;;;13.37;10.40;;;7.30;99.90;;;;;;5002688;28;20821;-74
2023/12/14 06:55:55;;;;;;;14.20;9.93;;;7.20;99.90;;;;;;4995775;28;20228;-76
2023/12/14 06:58:21;;;;;;;14.87;9.93;;;7.20;99.90;;;;;;4993643;28;20455;-78
2023/12/14 07:00:47;;;;;;;14.10;10.63;;;7.20;99.90;;;;;;5001860;28;20179;-78
2023/12/14 07:03:13;;;;;;;12.50;9.40;;;7.20;99.90;;;;;;4990459;28;20331;-75
2023/12/14 07:05:39;;;;;;;13.60;10.40;;;7.20;99.90;;;;;;4989590;28;20430;-74
2023/12/14 07:08:05;;;;;;;12.73;10.00;;;7.20;99.90;;;;;;4990273;28;20442;-76
2023/12/14 07:10:31;;;;;;;14.90;9.97;;;7.20;99.90;;;;;;4990823;28;20512;-76
2023/12/14 07:12:56;;;;;;;12.80;9.70;;;7.20;99.90;;;;;;4992074;28;20194;-75
2023/12/14 07:15:22;;;;;;;13.60;9.97;;;7.20;99.90;;;;;;4991301;28;20866;-75
2023/12/14 07:17:48;;;;;;;15.10;9.60;;;7.20;99.90;;;;;;4991898;28;20195;-77
2023/12/14 07:20:13;;;;;;;12.57;8.90;;;7.20;99.90;;;;;;4990051;28;20794;-75
2023/12/14 07:22:39;;;;;;;14.90;9.50;;;7.20;99.90;;;;;;4989680;28;20196;-75
2023/12/14 07:25:05;;;;;;;12.07;7.80;;;7.20;99.90;;;;;;4990890;28;20195;-74
2023/12/14 07:27:31;;;;;;;10.20;7.93;;;7.20;99.90;;;;;;4988359;28;20274;-74
2023/12/14 07:29:56;;;;;;;12.90;9.30;;;7.20;99.90;;;;;;4989733;28;20431;-78
2023/12/14 07:32:22;;;;;;;12.60;9.07;;;7.10;99.90;;;;;;4985755;28;20388;-74
2023/12/14 07:34:48;;;;;;;12.57;9.13;;;7.20;99.90;;;;;;4987554;28;20298;-77
2023/12/14 07:37:14;;;;;;;12.57;9.13;;;7.20;99.90;;;;;;4990438;28;20787;-74
2023/12/14 07:39:39;;;;;;;13.37;9.00;;;7.10;99.90;;;;;;4983305;28;20219;-75
2023/12/14 07:42:05;;;;;;;13.00;8.80;;;7.10;99.90;;;;;;4974519;28;20435;-74
2023/12/14 07:44:31;;;;;;;13.20;9.40;;;7.20;99.90;;;;;;4995865;28;20260;-74
2023/12/14 07:46:59;;;;;;;13.40;9.20;;;7.20;99.90;;;;;;4997955;28;20438;-74
2023/12/14 07:49:25;;;;;;;13.53;9.40;;;7.10;99.90;;;;;;4999423;28;20434;-74
2023/12/14 07:51:51;;;;;;;11.70;8.87;;;7.10;99.90;;;;;;4998076;28;20431;-74
2023/12/14 07:54:18;;;;;;;12.53;9.30;;;7.20;99.90;;;;;;4997270;28;20199;-73
2023/12/14 07:56:44;;;;;;;11.50;8.63;;;7.10;99.90;;;;;;4991139;28;20430;-74
2023/12/14 07:59:10;;;;;;;10.73;8.50;;;7.10;99.90;;;;;;4976823;28;20532;-74
2023/12/14 08:01:36;;;;;;;10.83;8.07;;;7.10;99.90;;;;;;4993017;28;20427;-74
2023/12/14 08:04:02;;;;;;;11.53;8.33;;;7.10;99.90;;;;;;4993423;28;20430;-74
2023/12/14 08:06:28;;;;;;;10.93;8.20;;;7.10;99.90;;;;;;4995900;28;20484;-74
2023/12/14 08:08:55;;;;;;;11.00;9.00;;;7.10;99.90;;;;;;4994688;28;20438;-74
2023/12/14 08:11:20;;;;;;;12.67;8.57;;;7.10;99.90;;;;;;5093456;27;20191;-74
2023/12/14 08:13:47;;;;;;;11.47;9.10;;;7.10;99.90;;;;;;4992352;28;20438;-74
2023/12/14 08:16:13;;;;;;;12.77;8.70;;;7.10;99.90;;;;;;4993951;28;20195;-74
2023/12/14 08:18:39;;;;;;;10.60;8.57;;;7.00;99.90;;;;;;4993575;28;20577;-74
2023/12/14 08:21:04;;;;;;;10.13;8.70;;;7.10;99.90;;;;;;4993268;28;20270;-73
2023/12/14 08:23:30;;;;;;;12.10;8.77;;;7.00;99.90;;;;;;4994732;28;20817;-74
2023/12/14 08:25:57;;;;;;;11.63;8.07;;;7.10;99.90;;;;;;4994311;28;20191;-73
2023/12/14 08:28:23;;;;;;;13.50;8.50;;;7.10;99.90;;;;;;4994436;28;20186;-74
2023/12/14 08:30:49;;;;;;;13.43;9.83;;;7.10;99.90;;;;;;4992647;28;20960;-74
2023/12/14 08:33:15;;;;;;;12.13;8.67;;;7.10;99.90;;;;;;4994285;28;20490;-72
2023/12/14 08:35:41;;;;;;;11.17;8.93;;;7.10;99.90;;;;;;4993722;28;20705;-74
2023/12/14 08:38:07;;;;;;;12.33;9.90;;;7.10;99.90;;;;;;4996036;28;20190;-75
2023/12/14 08:40:32;;;;;;;13.00;10.20;;;7.00;99.90;;;;;;4993337;28;20184;-73
2023/12/14 08:42:58;;;;;;;11.33;8.63;;;7.00;99.90;;;;;;4993167;28;20433;-74
2023/12/14 08:45:24;;;;;;;11.67;8.77;;;7.10;99.90;;;;;;4994976;28;20203;-74
2023/12/14 08:47:50;;;;;;;14.80;9.73;;;7.00;99.90;;;;;;4993601;28;20496;-74
2023/12/14 08:50:16;;;;;;;13.53;11.20;;;7.00;99.90;;;;;;4993004;28;20194;-73
2023/12/14 08:52:41;;;;;;;13.43;9.67;;;7.00;99.90;;;;;;4991093;28;20186;-74
2023/12/14 08:55:08;;;;;;;10.80;8.80;;;7.00;99.90;;;;;;4993087;28;20184;-74
2023/12/14 08:57:34;;;;;;;10.70;8.43;;;7.00;99.90;;;;;;4992060;28;20427;-74
2023/12/14 09:00:00;;;;;;;12.13;9.40;;;7.00;99.90;;;;;;4992618;28;20508;-74
2023/12/14 09:02:26;;;;;;;12.00;9.13;;;7.00;99.90;;;;;;4993846;28;21333;-74
2023/12/14 09:04:52;;;;;;;14.93;11.67;;;7.00;99.90;;;;;;4991857;28;20866;-74
2023/12/14 09:07:18;;;;;;;16.33;10.57;;;7.00;99.90;;;;;;4993744;28;20435;-74
2023/12/14 09:09:43;;;;;;;16.50;11.23;;;7.00;99.90;;;;;;4979254;28;20226;-74
2023/12/14 09:12:09;;;;;;;16.23;11.37;;;7.00;99.90;;;;;;4994481;28;20266;-74
2023/12/14 09:14:36;;;;;;;16.53;10.67;;;7.00;99.90;;;;;;4995215;28;20199;-74
2023/12/14 09:17:01;;;;;;;17.97;11.40;;;6.90;99.90;;;;;;4994416;28;20435;-72
2023/12/14 09:19:31;;;;;;;16.60;12.20;;;7.00;99.90;;;;;;4994706;28;20828;-72
2023/12/14 09:21:57;;;;;;;15.40;11.57;;;7.00;99.90;;;;;;4995323;28;20419;-75
2023/12/14 09:24:23;;;;;;;16.83;11.87;;;7.00;99.90;;;;;;4994921;28;20438;-75
2023/12/14 09:26:48;;;;;;;17.83;11.37;;;7.00;99.90;;;;;;4994604;28;20454;-74
2023/12/14 09:29:15;;;;;;;15.27;10.53;;;7.00;99.90;;;;;;4994991;28;20187;-74
2023/12/14 09:31:45;;;;;;;16.30;11.50;;;7.00;99.90;;;;;;4995174;28;20675;-74
2023/12/14 09:34:12;;;;;;;16.67;11.77;;;7.00;99.90;;;;;;4994644;28;20788;-74
2023/12/14 09:36:38;;;;;;;18.90;12.37;;;7.00;99.90;;;;;;4997546;28;20423;-75
2023/12/14 09:39:10;;;;;;;15.67;11.63;;;7.00;99.90;;;;;;4994689;28;20478;-72
2023/12/14 09:41:36;;;;;;;16.00;10.90;;;6.90;99.90;;;;;;4995467;28;20438;-73
2023/12/14 09:44:03;;;;;;;16.10;11.57;;;6.90;99.90;;;;;;4992771;28;20430;-75
2023/12/14 09:46:30;;;;;;;15.73;10.20;;;6.90;99.90;;;;;;4996214;28;20435;-75
2023/12/14 09:48:57;;;;;;;16.43;11.00;;;6.90;99.90;;;;;;4998394;28;20426;-74
2023/12/14 09:51:23;;;;;;;17.63;11.40;;;6.90;99.90;;;;;;4998680;28;20493;-74
2023/12/14 09:53:50;;;;;;;16.70;12.40;;;6.90;99.90;;;;;;4997829;28;20462;-74
2023/12/14 09:56:16;;;;;;;16.70;12.57;;;6.90;99.90;;;;;;4980598;28;20450;-74
2023/12/14 09:58:42;;;;;;;18.77;12.83;;;6.90;99.90;;;;;;4999441;28;20478;-74
2023/12/14 10:01:27;;;;;;;17.40;12.10;;;6.90;99.90;;;;;;4997477;28;20187;-74
2023/12/14 10:04:08;;;;;;;18.63;13.43;;;6.90;99.90;;;;;;4997689;28;20179;-74
2023/12/14 10:06:34;;;;;;;18.60;13.20;;;6.90;99.90;;;;;;4997924;28;20442;-74
2023/12/14 10:08:59;;;;;;;18.83;13.40;;;6.90;99.90;;;;;;4997926;28;21155;-72
2023/12/14 10:11:25;;;;;;;18.23;12.77;;;6.90;99.90;;;;;;4999359;28;20217;-74
2023/12/14 10:13:50;;;;;;;19.10;14.03;;;6.90;99.90;;;;;;4998039;28;20192;-74
2023/12/14 10:16:32;;;;;;;21.07;14.87;;;6.90;99.90;;;;;;4997790;28;20184;-73
2023/12/14 10:18:59;;;;;;;18.07;13.40;;;6.90;99.90;;;;;;4998131;28;20238;-73
2023/12/14 10:21:28;;;;;;;20.83;13.60;;;6.90;99.90;;;;;;4999416;28;20529;-73
2023/12/14 10:23:58;;;;;;;16.60;12.00;;;6.90;99.90;;;;;;4997110;28;20467;-73
2023/12/14 10:26:25;;;;;;;18.47;12.90;;;6.90;99.90;;;;;;4998559;28;20791;-73
2023/12/14 10:28:51;;;;;;;22.07;14.23;;;6.90;99.90;;;;;;4998285;28;20427;-73
2023/12/14 10:31:19;;;;;;;21.30;13.80;;;6.80;99.90;;;;;;4997910;28;20446;-73
2023/12/14 10:33:45;;;;;;;20.73;13.70;;;6.90;99.90;;;;;;4997515;28;20499;-72
2023/12/14 10:36:19;;;;;;;23.33;15.70;;;6.90;99.90;;;;;;5000278;28;20431;-70
2023/12/14 10:38:48;;;;;;;19.43;14.07;;;6.90;99.90;;;;;;4996139;28;20473;-72
2023/12/14 10:41:14;;;;;;;19.30;13.77;;;6.90;99.90;;;;;;4997123;28;20434;-73
2023/12/14 10:43:41;;;;;;;19.90;13.67;;;6.90;99.90;;;;;;5000127;28;20430;-73
2023/12/14 10:46:09;;;;;;;19.00;13.30;;;7.00;99.90;;;;;;4997591;28;20433;-73
2023/12/14 10:48:36;;;;;;;18.80;13.90;;;7.00;99.90;;;;;;4999933;28;20884;-73
2023/12/14 10:51:02;;;;;;;17.27;12.80;;;7.00;99.90;;;;;;4997890;28;20772;-73
2023/12/14 10:53:29;;;;;;;16.70;11.97;;;7.00;99.90;;;;;;4999458;28;20431;-73
2023/12/14 10:55:58;;;;;;;18.33;13.20;;;7.00;99.90;;;;;;4997694;28;20426;-73
2023/12/14 10:58:24;;;;;;;18.70;13.43;;;7.00;99.90;;;;;;4998918;28;20439;-73
2023/12/14 11:01:03;;;;;;;19.80;13.03;;;7.00;99.90;;;;;;4998102;28;21041;-73
2023/12/14 11:03:35;;;;;;;20.63;13.43;;;7.10;99.90;;;;;;4999417;28;20260;-72
2023/12/14 11:06:01;;;;;;;18.97;13.63;;;7.00;99.90;;;;;;4997529;28;20489;-73
2023/12/14 11:08:27;;;;;;;18.90;12.07;;;7.00;99.90;;;;;;5000531;28;20422;-73
2023/12/14 11:10:59;;;;;;;18.07;12.40;;;7.00;99.90;;;;;;4997003;28;20423;-73
2023/12/14 11:13:26;;;;;;;18.80;13.60;;;7.00;99.90;;;;;;5000341;28;20195;-73
2023/12/14 11:15:52;;;;;;;19.07;13.03;;;7.00;99.90;;;;;;4997730;28;20452;-73
2023/12/14 11:18:18;;;;;;;19.47;13.53;;;7.00;99.90;;;;;;4997922;28;20476;-73
2023/12/14 11:20:49;;;;;;;17.97;11.97;;;7.00;99.90;;;;;;5000471;28;20431;-72
2023/12/14 11:23:17;;;;;;;18.83;11.93;;;7.00;99.90;;;;;;4997601;28;20198;-73
2023/12/14 11:25:43;;;;;;;20.00;12.10;;;7.00;99.90;;;;;;5000308;28;21242;-73
2023/12/14 11:28:10;;;;;;;16.97;11.47;;;7.00;99.90;;;;;;4997187;28;20915;-74
2023/12/14 11:30:37;;;;;;;20.47;13.37;;;7.10;99.90;;;;;;5000674;28;20827;-74
2023/12/14 11:33:03;;;;;;;16.73;12.33;;;7.10;99.90;;;;;;4997933;28;20443;-73
2023/12/14 11:35:29;;;;;;;17.70;11.43;;;7.10;99.90;;;;;;5014350;28;20785;-74
2023/12/14 11:37:59;;;;;;;17.20;12.23;;;7.10;99.90;;;;;;4998338;28;20441;-74
2023/12/14 11:40:26;;;;;;;14.90;10.57;;;7.10;99.90;;;;;;4998329;28;20227;-74
2023/12/14 11:43:07;;;;;;;16.40;10.83;;;7.10;99.90;;;;;;4998342;28;21148;-74
2023/12/14 11:45:34;;;;;;;19.70;11.40;;;7.10;99.90;;;;;;4999226;28;20487;-74
2023/12/14 11:48:01;;;;;;;15.57;10.80;;;7.10;99.90;;;;;;4998483;28;20526;-73
2023/12/14 11:50:27;;;;;;;17.07;11.50;;;7.10;99.90;;;;;;5000593;28;20426;-74
2023/12/14 11:52:55;;;;;;;16.30;10.97;;;7.10;99.90;;;;;;4998091;28;20535;-74
2023/12/14 11:55:21;;;;;;;15.20;11.00;;;7.10;99.90;;;;;;5012836;28;21222;-73
2023/12/14 11:57:49;;;;;;;14.17;9.93;;;7.10;99.90;;;;;;4998847;28;20780;-73
2023/12/14 12:00:15;;;;;;;13.37;9.47;;;7.10;99.90;;;;;;4997234;28;20478;-73
2023/12/14 12:02:41;;;;;;;14.40;9.60;;;7.10;99.90;;;;;;5000896;28;20450;-74
2023/12/14 12:05:07;;;;;;;12.33;8.63;;;7.10;99.90;;;;;;5075956;28;20625;-74
2023/12/14 12:07:33;;;;;;;11.87;8.53;;;7.10;99.90;;;;;;5000674;28;20204;-73
2023/12/14 12:09:59;;;;;;;12.70;8.90;;;7.10;99.90;;;;;;4996409;28;20443;-73
2023/12/14 12:12:25;;;;;;;14.93;9.10;;;7.10;99.90;;;;;;5000497;28;20438;-74
2023/12/14 12:14:52;;;;;;;13.07;8.87;;;7.00;99.90;;;;;;4998205;28;20997;-73
2023/12/14 12:17:19;;;;;;;13.40;9.10;;;7.00;99.90;;;;;;4996413;28;20446;-73
2023/12/14 12:19:45;;;;;;;12.37;7.80;;;7.00;99.90;;;;;;4997499;28;20466;-74
2023/12/14 12:22:11;;;;;;;14.57;10.10;;;7.00;99.90;;;;;;4995316;28;20439;-73
2023/12/14 12:24:37;;;;;;;13.57;8.67;;;7.00;99.90;;;;;;4985230;28;20439;-73
2023/12/14 12:27:04;;;;;;;12.50;8.50;;;7.00;99.90;;;;;;4995648;28;20198;-73
2023/12/14 12:29:30;;;;;;;13.70;9.57;;;7.00;99.90;;;;;;4999296;28;20430;-74
2023/12/14 12:31:56;;;;;;;13.27;8.93;;;7.00;99.90;;;;;;4995543;28;20443;-74
2023/12/14 12:34:22;;;;;;;14.03;9.77;;;7.00;99.90;;;;;;4999851;28;20434;-74
2023/12/14 12:36:48;;;;;;;13.40;8.63;;;7.00;99.90;;;;;;4999771;28;20433;-74
2023/12/14 12:39:14;;;;;;;11.30;7.83;;;7.00;99.90;;;;;;4997676;28;21398;-74
2023/12/14 12:41:39;;;;;;;11.10;7.73;;;7.00;99.90;;;;;;5001576;28;20780;-74